Time;durP1;ratioP1;P1;durP2;ratioP2;P2;SDS_P1;SDS_P2;PMS_P1;PMS_P2;Temp;Humidity;BMP_temperature;BMP_pressure;BME280_temperature;BME280_humidity;BME280_pressure;Samples;Min_cycle;Max_cycle;Signal;HPM_P1;HPM_P2
2022/05/30 00:01:22;;;;;;;5.88;1.83;;;9.20;99.90;;;;;;5074099;28;20040;-69
2022/05/30 00:03:48;;;;;;;2.42;1.20;;;;;;;;;;5057736;28;20126;-69
2022/05/30 00:06:17;;;;;;;5.85;1.90;;;9.10;99.90;;;;;;5074054;28;20102;-68
2022/05/30 00:08:43;;;;;;;3.05;1.27;;;;;;;;;;5092127;28;20040;-68
2022/05/30 00:11:11;;;;;;;1.88;1.27;;;9.10;99.90;;;;;;5073205;28;20051;-68
2022/05/30 00:13:37;;;;;;;5.40;1.50;;;9.20;99.90;;;;;;5074028;28;20058;-68
2022/05/30 00:16:05;;;;;;;2.78;1.15;;;9.70;99.90;;;;;;5057325;28;20036;-69
2022/05/30 00:18:31;;;;;;;2.60;1.17;;;;;;;;;;5092060;28;20601;-69
2022/05/30 00:20:58;;;;;;;3.58;0.82;;;;;;;;;;5073072;28;20032;-69
2022/05/30 00:23:24;;;;;;;4.40;0.70;;;;;;;;;;5073982;28;20075;-69
2022/05/30 00:25:50;;;;;;;3.25;0.70;;;;;;;;;;5073807;28;20040;-68
2022/05/30 00:28:16;;;;;;;2.38;0.95;;;;;;;;;;5074031;28;20074;-68
2022/05/30 00:30:44;;;;;;;4.18;1.00;;;9.30;99.90;;;;;;5072944;28;20050;-68
2022/05/30 00:33:10;;;;;;;7.55;1.30;;;;;;;;;;5091700;28;20040;-68
2022/05/30 00:35:36;;;;;;;4.57;1.15;;;;;;;;;;5091821;28;20032;-68
2022/05/30 00:38:02;;;;;;;3.90;1.30;;;;;;;;;;5091686;28;20351;-68
2022/05/30 00:40:28;;;;;;;4.80;1.67;;;;;;;;;;5072808;28;20293;-67
2022/05/30 00:42:54;;;;;;;6.25;1.77;;;;;;;;;;5073745;28;20382;-68
2022/05/30 00:45:20;;;;;;;5.00;1.52;;;;;;;;;;5082103;22;20056;-67
2022/05/30 00:47:47;;;;;;;7.68;1.77;;;9.30;99.90;;;;;;5053992;28;20040;-68
2022/05/30 00:50:12;;;;;;;4.25;1.67;;;9.40;99.90;;;;;;5071294;28;20041;-68
2022/05/30 00:52:42;;;;;;;6.93;1.77;;;9.40;99.90;;;;;;5037127;28;20036;-68
2022/05/30 00:55:16;;;;;;;4.43;1.50;;;9.40;99.90;;;;;;5071623;28;20115;-68
2022/05/30 00:57:43;;;;;;;6.60;1.83;;;9.30;99.90;;;;;;5053808;28;20163;-68
2022/05/30 01:00:11;;;;;;;4.78;1.67;;;9.10;99.90;;;;;;5070784;28;20043;-67
2022/05/30 01:02:39;;;;;;;3.00;2.03;;;9.20;99.90;;;;;;5053846;28;20036;-68
2022/05/30 01:07:52;;;;;;;7.85;1.85;;;9.00;99.90;;;;;;5057687;28;20056;-70
2022/05/30 01:10:21;;;;;;;4.95;2.00;;;9.20;99.90;;;;;;5057167;28;20130;-67
2022/05/30 01:12:53;;;;;;;5.40;1.33;;;9.20;99.90;;;;;;5040878;28;20040;-68
2022/05/30 01:15:22;;;;;;;4.05;1.08;;;9.00;99.90;;;;;;5057849;28;20512;-68
2022/05/30 01:17:59;;;;;;;2.55;1.27;;;8.90;99.90;;;;;;5075706;28;20060;-68
2022/05/30 01:20:49;;;;;;;4.88;1.20;;;8.90;99.90;;;;;;5056755;28;20048;-68
2022/05/30 01:23:15;;;;;;;3.63;1.17;;;;;;;;;;5075305;28;20058;-68
2022/05/30 01:26:07;;;;;;;3.83;1.60;;;8.90;99.90;;;;;;5075493;28;20119;-69
2022/05/30 01:28:47;;;;;;;3.95;1.45;;;8.70;99.90;;;;;;5075460;28;20119;-68
2022/05/30 01:31:14;;;;;;;1.95;0.82;;;8.60;99.90;;;;;;5074680;28;20128;-68
2022/05/30 01:33:39;;;;;;;2.53;0.98;;;8.60;99.90;;;;;;5055601;28;20037;-68
2022/05/30 01:36:06;;;;;;;1.92;0.90;;;8.50;99.90;;;;;;5057294;28;20047;-69
2022/05/30 01:38:32;;;;;;;3.08;1.13;;;;;;;;;;5057463;28;20406;-67
2022/05/30 01:40:59;;;;;;;5.80;1.20;;;;;;;;;;5039650;28;20040;-68
2022/05/30 01:43:25;;;;;;;6.25;1.13;;;;;;;;;;5057095;28;20050;-69
2022/05/30 01:45:51;;;;;;;2.92;1.40;;;8.60;99.90;;;;;;5056987;28;20040;-67
2022/05/30 01:48:16;;;;;;;5.32;1.38;;;8.60;99.90;;;;;;5057073;28;20193;-67
2022/05/30 01:50:45;;;;;;;5.78;1.70;;;;;;;;;;5056271;28;20118;-69
2022/05/30 01:53:11;;;;;;;6.90;1.35;;;8.50;99.90;;;;;;5057093;28;20105;-67
2022/05/30 01:55:37;;;;;;;2.20;1.20;;;8.50;99.90;;;;;;5074897;28;20066;-68
2022/05/30 01:58:03;;;;;;;5.13;1.30;;;8.40;99.90;;;;;;5056782;28;20043;-68
2022/05/30 02:00:28;;;;;;;4.93;1.50;;;8.60;99.90;;;;;;5074031;28;20041;-68
2022/05/30 02:02:54;;;;;;;5.35;1.40;;;8.40;99.90;;;;;;5040133;28;20032;-68
2022/05/30 02:05:20;;;;;;;3.45;1.55;;;8.50;99.90;;;;;;5056835;28;20417;-68
2022/05/30 02:07:45;;;;;;;2.15;1.40;;;8.30;99.90;;;;;;5074766;28;20399;-68
2022/05/30 02:10:11;;;;;;;2.67;1.17;;;8.30;99.90;;;;;;5055811;28;20127;-69
2022/05/30 02:12:36;;;;;;;4.32;1.63;;;8.50;99.90;;;;;;5039942;28;20040;-66
2022/05/30 02:15:02;;;;;;;5.95;1.95;;;8.50;99.90;;;;;;5073964;28;20091;-68
2022/05/30 02:17:31;;;;;;;3.97;1.45;;;8.40;99.90;;;;;;5056288;28;20071;-68
2022/05/30 02:19:56;;;;;;;6.60;1.67;;;8.50;99.90;;;;;;5073483;28;20032;-67
2022/05/30 02:22:23;;;;;;;3.63;1.58;;;8.30;99.90;;;;;;5039730;28;20047;-68
2022/05/30 02:24:48;;;;;;;4.93;1.45;;;8.40;99.90;;;;;;5074393;28;20044;-67
2022/05/30 02:27:16;;;;;;;5.70;1.30;;;8.50;99.90;;;;;;5073010;28;20459;-69
2022/05/30 02:29:42;;;;;;;4.32;1.45;;;8.60;99.90;;;;;;5073522;28;20044;-68
2022/05/30 02:32:09;;;;;;;4.72;1.50;;;8.50;99.90;;;;;;5056503;28;20051;-68
2022/05/30 02:37:20;;;;;;;6.28;1.98;;;8.50;99.90;;;;;;5074426;28;20052;-68
2022/05/30 02:39:45;;;;;;;10.40;2.00;;;8.50;99.90;;;;;;5073290;28;20036;-68
2022/05/30 02:42:12;;;;;;;10.30;2.20;;;8.60;99.90;;;;;;5074012;28;20032;-68
2022/05/30 02:44:37;;;;;;;3.97;2.10;;;8.60;99.90;;;;;;5055777;28;20072;-68
2022/05/30 02:47:04;;;;;;;5.10;1.77;;;8.50;99.90;;;;;;5055955;28;20137;-68
2022/05/30 02:49:30;;;;;;;10.10;2.53;;;8.80;99.90;;;;;;5055354;28;20051;-67
2022/05/30 02:51:56;;;;;;;5.63;1.73;;;8.60;99.90;;;;;;5055919;28;20417;-68
2022/05/30 02:54:21;;;;;;;7.18;1.98;;;8.80;99.90;;;;;;5073498;28;20063;-68
2022/05/30 02:56:49;;;;;;;5.47;2.00;;;8.60;99.90;;;;;;5055899;28;20518;-67
2022/05/30 02:59:15;;;;;;;12.15;2.30;;;8.70;99.90;;;;;;5072972;28;20111;-68
2022/05/30 03:01:40;;;;;;;7.95;2.10;;;8.70;99.90;;;;;;5055859;28;20508;-67
2022/05/30 03:04:07;;;;;;;7.30;2.05;;;8.80;99.90;;;;;;5055605;28;20123;-68
2022/05/30 03:06:32;;;;;;;8.02;2.25;;;8.90;99.90;;;;;;5039286;28;20444;-68
2022/05/30 03:08:58;;;;;;;4.28;1.73;;;8.70;99.90;;;;;;5054952;28;20044;-68
2022/05/30 03:11:24;;;;;;;7.55;1.88;;;8.80;99.90;;;;;;5073321;28;20059;-69
2022/05/30 03:13:50;;;;;;;4.18;1.77;;;8.70;99.90;;;;;;5055594;28;20045;-67
2022/05/30 03:16:16;;;;;;;7.10;2.05;;;8.80;99.90;;;;;;5055642;28;20514;-68
2022/05/30 03:18:42;;;;;;;7.30;1.75;;;8.70;99.90;;;;;;5055263;28;20044;-68
2022/05/30 03:21:09;;;;;;;6.72;2.92;;;8.90;99.90;;;;;;5054834;28;20045;-68
2022/05/30 03:23:35;;;;;;;4.45;1.63;;;8.90;99.90;;;;;;5038658;28;20410;-68
2022/05/30 03:26:00;;;;;;;6.63;2.15;;;8.70;99.90;;;;;;5055471;28;20036;-68
2022/05/30 03:28:26;;;;;;;4.28;1.70;;;8.70;99.90;;;;;;5054088;28;20075;-68
2022/05/30 03:30:51;;;;;;;11.02;1.80;;;8.70;99.90;;;;;;5054560;28;20127;-69
2022/05/30 03:33:17;;;;;;;8.15;2.40;;;8.70;99.90;;;;;;5038379;28;20120;-66
2022/05/30 03:35:42;;;;;;;4.45;1.73;;;8.70;99.90;;;;;;5071918;28;20036;-68
2022/05/30 03:38:10;;;;;;;4.80;1.60;;;8.80;99.90;;;;;;5073044;28;20033;-68
2022/05/30 03:40:39;;;;;;;4.95;1.50;;;8.80;99.90;;;;;;5071983;28;20556;-68
2022/05/30 03:43:08;;;;;;;5.43;1.52;;;8.60;99.90;;;;;;5071472;28;20559;-69
2022/05/30 03:45:35;;;;;;;7.32;1.83;;;8.70;99.90;;;;;;5072505;28;20051;-68
2022/05/30 03:48:01;;;;;;;1.98;1.40;;;8.70;99.90;;;;;;5054999;28;20071;-68
2022/05/30 03:50:26;;;;;;;4.60;1.83;;;8.80;99.90;;;;;;5054116;28;20041;-68
2022/05/30 03:52:52;;;;;;;6.20;1.85;;;8.70;99.90;;;;;;5054349;28;20033;-68
2022/05/30 03:55:20;;;;;;;4.63;2.08;;;9.00;99.90;;;;;;5072733;28;20057;-68
2022/05/30 03:57:46;;;;;;;5.00;1.85;;;9.00;99.90;;;;;;5054552;28;20040;-68
2022/05/30 04:00:21;;;;;;;4.95;1.70;;;8.90;99.90;;;;;;5071841;28;20513;-68
2022/05/30 04:02:50;;;;;;;10.30;2.35;;;9.00;99.90;;;;;;5038051;28;20277;-68
2022/05/30 04:05:17;;;;;;;5.07;1.92;;;8.90;99.90;;;;;;5054429;28;20040;-68
2022/05/30 04:07:43;;;;;;;5.90;1.77;;;9.10;99.90;;;;;;5071185;28;20117;-68
2022/05/30 04:10:09;;;;;;;3.67;1.67;;;9.10;99.90;;;;;;5053777;28;20093;-68
2022/05/30 04:12:36;;;;;;;5.68;1.65;;;9.10;99.90;;;;;;5072079;28;20612;-68
2022/05/30 04:15:02;;;;;;;4.45;1.52;;;9.10;99.90;;;;;;5037609;28;20071;-69
2022/05/30 04:17:31;;;;;;;2.15;1.30;;;9.20;99.90;;;;;;5054240;28;20044;-68
2022/05/30 04:19:56;;;;;;;2.45;1.20;;;9.40;99.90;;;;;;5053611;28;20394;-68
2022/05/30 04:22:22;;;;;;;5.30;1.30;;;9.30;99.90;;;;;;5072080;28;20037;-68
2022/05/30 04:24:48;;;;;;;4.50;1.23;;;9.30;99.90;;;;;;5071910;28;20045;-68
2022/05/30 04:27:13;;;;;;;3.08;1.27;;;9.30;99.90;;;;;;5054319;28;20478;-68
2022/05/30 04:29:39;;;;;;;6.88;1.42;;;9.40;99.90;;;;;;5053527;28;20040;-68
2022/05/30 04:32:06;;;;;;;3.78;1.30;;;9.40;99.90;;;;;;5054285;28;20048;-68
2022/05/30 04:34:32;;;;;;;2.00;1.30;;;9.30;99.90;;;;;;5037235;28;20387;-68
2022/05/30 04:36:57;;;;;;;3.13;1.30;;;9.30;99.90;;;;;;5071769;28;20594;-68
2022/05/30 04:39:23;;;;;;;5.88;1.38;;;9.30;99.90;;;;;;5036371;28;20048;-68
2022/05/30 04:41:49;;;;;;;1.65;1.17;;;9.40;99.90;;;;;;5071771;28;20083;-68
2022/05/30 04:44:14;;;;;;;3.80;1.52;;;9.30;99.90;;;;;;5053697;28;20059;-68
2022/05/30 04:46:40;;;;;;;3.83;1.45;;;9.30;99.90;;;;;;5054039;28;20482;-68
2022/05/30 04:49:06;;;;;;;5.00;2.08;;;9.40;99.90;;;;;;5071245;28;20090;-68
2022/05/30 04:51:31;;;;;;;4.80;2.47;;;9.30;99.90;;;;;;5071756;28;20032;-69
2022/05/30 04:53:57;;;;;;;3.17;2.03;;;9.40;99.90;;;;;;5071482;28;20043;-68
2022/05/30 04:56:23;;;;;;;2.15;1.30;;;9.50;99.90;;;;;;5053627;28;20509;-68
2022/05/30 04:58:49;;;;;;;5.18;2.10;;;9.40;99.90;;;;;;5037299;28;20045;-68
2022/05/30 05:01:16;;;;;;;7.50;4.82;;;9.40;99.90;;;;;;5053122;28;20036;-68
2022/05/30 05:03:43;;;;;;;4.60;2.95;;;9.50;99.90;;;;;;5071636;28;20055;-68
2022/05/30 05:06:19;;;;;;;2.58;1.73;;;9.30;99.90;;;;;;5071399;28;20043;-69
2022/05/30 05:08:50;;;;;;;3.60;1.70;;;9.60;99.90;;;;;;5053515;28;20051;-70
2022/05/30 05:11:24;;;;;;;2.05;1.27;;;9.50;99.90;;;;;;5053268;28;20040;-68
2022/05/30 05:13:51;;;;;;;2.25;1.15;;;9.70;99.90;;;;;;5053475;28;20043;-68
2022/05/30 05:16:19;;;;;;;3.20;1.52;;;9.60;99.90;;;;;;5071400;28;20537;-68
2022/05/30 05:18:45;;;;;;;5.43;1.20;;;9.70;99.90;;;;;;5071636;28;20042;-68
2022/05/30 05:21:34;;;;;;;1.60;1.13;;;9.80;99.90;;;;;;5052619;28;20114;-67
2022/05/30 05:24:02;;;;;;;2.22;1.00;;;9.90;99.90;;;;;;5071291;28;20556;-68
2022/05/30 05:26:28;;;;;;;4.63;1.00;;;10.00;99.90;;;;;;5053618;28;20056;-68
2022/05/30 05:28:54;;;;;;;3.58;1.45;;;10.00;99.90;;;;;;5071054;28;20040;-68
2022/05/30 05:31:25;;;;;;;3.08;1.23;;;10.10;99.90;;;;;;5071459;28;20509;-68
2022/05/30 05:33:51;;;;;;;2.88;0.90;;;10.30;99.90;;;;;;5070965;28;20502;-68
2022/05/30 05:36:38;;;;;;;5.35;1.02;;;10.10;99.90;;;;;;5071480;28;20375;-68
2022/05/30 05:39:04;;;;;;;2.38;1.00;;;10.10;99.90;;;;;;5070842;28;20036;-68
2022/05/30 05:41:30;;;;;;;5.43;1.15;;;10.20;99.90;;;;;;5071000;28;20037;-70
2022/05/30 05:43:56;;;;;;;2.33;0.93;;;10.40;99.90;;;;;;5053039;28;20189;-68
2022/05/30 05:46:26;;;;;;;5.22;1.10;;;10.30;99.90;;;;;;5036598;28;20047;-68
2022/05/30 05:48:52;;;;;;;2.15;1.27;;;10.50;99.90;;;;;;5052865;28;20037;-71
2022/05/30 05:51:19;;;;;;;3.60;1.40;;;10.60;99.90;;;;;;5037982;28;20075;-68
2022/05/30 05:53:45;;;;;;;1.60;0.90;;;10.70;99.90;;;;;;5057032;28;20044;-70
2022/05/30 05:56:20;;;;;;;5.80;1.00;;;;;;;;;;5056955;28;20090;-68
2022/05/30 05:58:45;;;;;;;1.27;0.80;;;11.00;99.90;;;;;;5056831;28;20036;-68
2022/05/30 06:01:23;;;;;;;2.45;0.77;;;10.90;99.90;;;;;;5074074;28;20044;-69
2022/05/30 06:03:52;;;;;;;2.28;0.75;;;11.10;99.90;;;;;;5056641;28;20036;-68
2022/05/30 06:06:17;;;;;;;2.30;0.70;;;10.80;99.90;;;;;;5074833;28;20465;-69
2022/05/30 06:08:43;;;;;;;1.98;0.80;;;10.70;99.90;;;;;;5074712;28;20079;-68
2022/05/30 06:11:08;;;;;;;2.95;1.13;;;11.10;99.90;;;;;;5056085;28;20131;-68
2022/05/30 06:13:36;;;;;;;3.60;0.90;;;11.10;99.90;;;;;;5074323;28;20045;-68
2022/05/30 06:16:08;;;;;;;4.45;1.42;;;11.30;99.90;;;;;;5056669;28;20043;-68
2022/05/30 06:18:34;;;;;;;1.85;0.98;;;11.50;99.90;;;;;;5039830;28;20084;-68
2022/05/30 06:21:00;;;;;;;2.47;0.95;;;11.40;99.90;;;;;;5055905;28;20048;-68
2022/05/30 06:23:26;;;;;;;2.60;0.82;;;11.50;99.90;;;;;;5056449;28;20041;-68
2022/05/30 06:25:52;;;;;;;5.28;1.35;;;11.50;99.90;;;;;;5074196;28;20047;-68
2022/05/30 06:28:17;;;;;;;3.42;0.60;;;11.30;99.90;;;;;;5056561;28;20040;-68
2022/05/30 06:30:43;;;;;;;1.13;0.50;;;11.70;99.90;;;;;;5038861;28;20040;-68
2022/05/30 06:33:08;;;;;;;4.32;0.88;;;11.70;99.90;;;;;;5074157;28;20044;-68
2022/05/30 06:35:34;;;;;;;2.33;0.90;;;12.00;99.90;;;;;;5056324;28;20045;-68
2022/05/30 06:37:59;;;;;;;1.15;0.60;;;12.00;99.90;;;;;;5056428;28;20040;-68
2022/05/30 06:40:25;;;;;;;3.72;0.90;;;12.10;99.90;;;;;;5054726;28;20029;-68
2022/05/30 06:42:51;;;;;;;4.65;1.63;;;11.80;99.90;;;;;;5073671;28;20044;-68
2022/05/30 06:45:16;;;;;;;8.20;1.48;;;11.70;99.90;;;;;;5040090;28;20033;-68
2022/05/30 06:47:42;;;;;;;3.30;0.80;;;11.70;99.90;;;;;;5055464;28;20040;-68
2022/05/30 06:50:08;;;;;;;4.38;1.90;;;11.50;99.90;;;;;;5054836;28;20536;-68
2022/05/30 06:52:35;;;;;;;7.55;1.13;;;11.40;99.90;;;;;;5073496;28;20037;-68
2022/05/30 06:55:01;;;;;;;2.92;1.00;;;11.30;99.90;;;;;;5072980;28;20518;-69
2022/05/30 07:00:11;;;;;;;1.80;0.82;;;11.40;99.90;;;;;;5053589;28;20112;-68
2022/05/30 07:02:36;;;;;;;4.78;1.15;;;11.40;99.90;;;;;;5055101;28;20037;-68
2022/05/30 07:05:03;;;;;;;2.03;1.10;;;11.20;99.90;;;;;;5048654;28;20185;-69
2022/05/30 07:07:29;;;;;;;2.10;0.77;;;11.50;99.90;;;;;;5058427;28;20043;-68
2022/05/30 07:09:54;;;;;;;3.40;1.10;;;11.60;99.90;;;;;;5049041;28;20055;-69
2022/05/30 07:12:20;;;;;;;5.75;1.33;;;11.40;99.90;;;;;;5052158;28;20045;-69
2022/05/30 07:14:45;;;;;;;6.25;1.80;;;11.50;99.90;;;;;;5066506;28;20049;-68
2022/05/30 07:17:11;;;;;;;4.43;1.10;;;11.60;99.90;;;;;;5051869;28;20072;-67
2022/05/30 07:19:37;;;;;;;1.27;0.85;;;11.40;99.90;;;;;;5049817;28;20032;-69
2022/05/30 07:22:03;;;;;;;4.32;0.70;;;11.70;99.90;;;;;;5067977;28;20082;-66
2022/05/30 07:24:29;;;;;;;7.03;0.73;;;11.80;99.90;;;;;;5030874;28;20135;-68
2022/05/30 07:26:55;;;;;;;1.95;0.77;;;12.20;99.90;;;;;;5059320;28;20044;-68
2022/05/30 07:29:20;;;;;;;1.58;0.68;;;12.30;99.90;;;;;;5039697;28;20041;-68
2022/05/30 07:31:46;;;;;;;3.20;0.93;;;12.50;99.90;;;;;;5040364;28;20040;-70
2022/05/30 07:34:12;;;;;;;2.85;0.50;;;12.60;99.90;;;;;;5042395;28;20048;-68
2022/05/30 07:36:37;;;;;;;3.20;0.70;;;12.70;99.90;;;;;;5043110;28;20090;-68
2022/05/30 07:39:04;;;;;;;2.15;0.70;;;13.30;99.90;;;;;;5033445;28;20131;-68
2022/05/30 07:41:31;;;;;;;1.42;0.43;;;;;;;;;;5058238;28;20037;-68
2022/05/30 07:43:57;;;;;;;1.38;0.32;;;13.70;99.90;;;;;;5032121;28;20605;-69
2022/05/30 07:46:25;;;;;;;3.67;0.90;;;14.20;99.90;;;;;;5065379;28;20139;-69
2022/05/30 07:48:51;;;;;;;1.40;0.43;;;;;;;;;;5061841;28;20032;-68
2022/05/30 07:51:17;;;;;;;1.95;0.95;;;;;;;;;;5020752;28;20041;-68
2022/05/30 07:53:44;;;;;;;6.15;0.90;;;13.20;99.90;;;;;;5041863;28;20563;-68
2022/05/30 07:56:13;;;;;;;1.75;0.57;;;12.80;99.90;;;;;;5032931;28;20029;-68
2022/05/30 07:58:39;;;;;;;1.67;0.55;;;12.60;99.90;;;;;;5036082;28;20089;-67
2022/05/30 08:01:09;;;;;;;1.77;0.60;;;12.50;99.90;;;;;;5041850;28;20497;-69
2022/05/30 08:03:35;;;;;;;1.35;0.30;;;;;;;;;;5057928;28;20553;-68
2022/05/30 08:06:08;;;;;;;1.48;0.52;;;12.70;99.90;;;;;;5061785;28;20196;-68
2022/05/30 08:08:34;;;;;;;2.60;0.40;;;12.40;99.90;;;;;;5069255;28;20565;-67
2022/05/30 08:11:00;;;;;;;3.72;0.50;;;12.50;99.90;;;;;;5048345;28;20402;-67
2022/05/30 08:13:26;;;;;;;3.53;0.73;;;;;;;;;;5055928;28;20122;-67
2022/05/30 08:15:52;;;;;;;2.78;0.50;;;;;;;;;;5051109;28;20044;-67
2022/05/30 08:18:19;;;;;;;3.95;1.02;;;12.70;99.90;;;;;;5025998;28;20410;-67
2022/05/30 08:20:45;;;;;;;1.90;0.60;;;;;;;;;;5064151;28;20418;-67
2022/05/30 08:23:11;;;;;;;1.80;0.50;;;12.80;99.90;;;;;;5064526;28;20298;-67
2022/05/30 08:25:38;;;;;;;1.48;0.50;;;12.90;99.90;;;;;;5038788;28;20037;-67
2022/05/30 08:28:05;;;;;;;1.55;0.30;;;12.80;99.90;;;;;;5068619;28;20029;-67
2022/05/30 08:30:31;;;;;;;1.23;0.50;;;;;;;;;;5043813;28;20044;-67
2022/05/30 08:32:57;;;;;;;4.38;0.50;;;;;;;;;;5057648;28;20426;-67
2022/05/30 08:35:24;;;;;;;1.33;0.70;;;13.30;99.90;;;;;;5023828;28;20417;-68
2022/05/30 08:37:50;;;;;;;2.17;0.93;;;13.30;99.90;;;;;;5041364;28;20042;-68
2022/05/30 08:43:26;;;;;;;3.15;0.93;;;13.50;99.90;;;;;;5042064;28;20461;-68
2022/05/30 08:46:09;;;;;;;1.05;0.50;;;13.70;99.90;;;;;;5047053;28;20040;-68
2022/05/30 08:49:05;;;;;;;1.25;0.30;;;13.70;99.90;;;;;;5047422;28;20064;-67
2022/05/30 08:52:02;;;;;;;3.10;1.73;;;13.90;99.90;;;;;;5047732;28;20395;-67
2022/05/30 08:54:41;;;;;;;1.38;0.50;;;13.90;99.90;;;;;;5046840;28;20428;-68
2022/05/30 08:57:26;;;;;;;1.90;0.50;;;14.00;99.90;;;;;;5028401;28;20115;-68
2022/05/30 09:00:09;;;;;;;1.52;0.50;;;14.00;99.90;;;;;;5035373;28;20048;-67
2022/05/30 09:02:47;;;;;;;3.15;0.32;;;13.80;99.90;;;;;;5044302;28;20079;-67
2022/05/30 09:05:28;;;;;;;1.13;0.40;;;13.70;99.90;;;;;;5021156;28;20173;-70
2022/05/30 09:07:58;;;;;;;4.72;0.60;;;13.90;99.90;;;;;;5044068;28;20452;-68
2022/05/30 09:10:29;;;;;;;1.10;0.50;;;13.70;99.90;;;;;;5034552;28;20471;-68
2022/05/30 09:13:05;;;;;;;2.63;0.55;;;13.70;99.90;;;;;;5045439;28;20048;-67
2022/05/30 09:15:35;;;;;;;2.20;0.50;;;13.90;99.90;;;;;;5062181;28;20430;-68
2022/05/30 09:18:00;;;;;;;2.65;0.90;;;13.80;99.90;;;;;;5030936;28;20098;-68
2022/05/30 09:20:29;;;;;;;2.08;0.82;;;13.80;99.90;;;;;;5048408;28;20107;-68
2022/05/30 09:22:55;;;;;;;1.67;0.60;;;14.00;99.90;;;;;;5049155;28;20043;-68
2022/05/30 09:28:16;;;;;;;2.05;1.30;;;13.80;99.90;;;;;;5041059;28;20414;-68
2022/05/30 09:31:23;;;;;;;5.53;0.98;;;13.60;99.90;;;;;;5032966;28;20048;-66
2022/05/30 09:33:52;;;;;;;3.83;1.80;;;13.30;99.90;;;;;;5041981;28;20061;-67
2022/05/30 09:36:22;;;;;;;3.42;1.10;;;12.80;99.90;;;;;;5032401;28;20040;-67
2022/05/30 09:39:03;;;;;;;6.90;1.33;;;12.50;99.90;;;;;;5065392;28;20028;-67
2022/05/30 09:41:38;;;;;;;5.63;1.15;;;12.20;99.90;;;;;;5055409;28;20041;-67
2022/05/30 09:44:12;;;;;;;4.93;1.33;;;12.00;99.90;;;;;;5069102;28;20044;-67
2022/05/30 09:46:43;;;;;;;8.77;1.42;;;11.90;99.90;;;;;;5064982;28;20055;-68
2022/05/30 09:49:15;;;;;;;3.53;1.13;;;11.80;99.90;;;;;;5034099;28;20498;-67
2022/05/30 09:51:46;;;;;;;3.70;1.23;;;11.90;99.90;;;;;;5042836;28;20052;-67
2022/05/30 09:54:32;;;;;;;4.97;1.20;;;11.90;99.90;;;;;;5070343;28;20348;-67
2022/05/30 09:57:04;;;;;;;3.58;1.30;;;12.00;99.90;;;;;;5061429;28;20033;-68
2022/05/30 09:59:39;;;;;;;4.90;1.42;;;12.00;99.90;;;;;;5055688;28;20036;-67
2022/05/30 10:02:22;;;;;;;2.75;1.13;;;11.90;99.90;;;;;;5044819;28;20067;-67
2022/05/30 10:05:01;;;;;;;5.72;2.33;;;12.10;99.90;;;;;;5059825;28;20051;-67
2022/05/30 10:07:28;;;;;;;2.60;1.80;;;11.90;99.90;;;;;;5035928;28;20041;-68
2022/05/30 10:10:04;;;;;;;4.97;1.98;;;12.10;99.90;;;;;;5048194;28;20082;-67
2022/05/30 10:12:44;;;;;;;3.70;1.17;;;12.40;99.90;;;;;;5019884;28;20033;-65
2022/05/30 10:15:23;;;;;;;5.10;1.77;;;12.50;99.90;;;;;;5061597;28;20479;-67
2022/05/30 10:17:49;;;;;;;5.00;2.17;;;12.70;99.90;;;;;;5042402;28;20077;-67
2022/05/30 10:20:36;;;;;;;6.95;2.10;;;12.70;99.90;;;;;;5065564;28;20164;-68
2022/05/30 10:29:51;;;;;;;3.05;0.60;;;13.30;99.90;;;;;;5062226;28;20080;-67
2022/05/30 10:32:38;;;;;;;2.45;1.25;;;13.50;99.90;;;;;;5054040;28;20116;-67
2022/05/30 10:35:17;;;;;;;7.47;3.20;;;14.00;99.90;;;;;;5030516;28;20512;-69
2022/05/30 10:37:58;;;;;;;2.92;1.13;;;13.80;99.90;;;;;;5038459;28;20036;-68
2022/05/30 10:40:24;;;;;;;3.40;1.48;;;;;;;;;;5062861;28;20557;-67
2022/05/30 10:43:43;;;;;;;4.57;2.15;;;14.40;99.90;;;;;;5068612;28;20064;-68
2022/05/30 10:46:14;;;;;;;3.55;1.40;;;14.90;99.90;;;;;;5007207;28;20056;-68
2022/05/30 10:48:45;;;;;;;3.92;0.50;;;14.70;99.90;;;;;;5051204;28;20131;-68
2022/05/30 10:51:14;;;;;;;1.60;0.60;;;14.70;99.90;;;;;;5043676;28;20088;-68
2022/05/30 10:53:39;;;;;;;2.97;0.82;;;15.10;99.90;;;;;;5028888;28;20050;-69
2022/05/30 10:56:17;;;;;;;2.13;0.90;;;15.30;99.90;;;;;;5047819;28;20430;-69
2022/05/30 10:58:50;;;;;;;1.75;0.57;;;15.00;99.90;;;;;;5066767;28;20045;-69
2022/05/30 11:01:24;;;;;;;;;;;15.00;99.90;;;;;;5050837;28;20028;-69
2022/05/30 11:04:03;;;;;;;1.88;0.50;;;14.70;99.90;;;;;;5052892;28;19931;-70
2022/05/30 11:06:33;;;;;;;3.65;0.55;;;14.70;99.90;;;;;;5045028;28;20040;-68
2022/05/30 11:09:26;;;;;;;2.60;1.08;;;14.90;99.90;;;;;;5036581;28;20790;-68
2022/05/30 11:12:05;;;;;;;1.30;0.70;;;14.80;99.90;;;;;;5046313;28;20033;-70
2022/05/30 11:15:01;;;;;;;4.32;0.73;;;14.60;99.90;;;;;;5050364;28;20041;-70
2022/05/30 11:18:10;;;;;;;2.78;0.88;;;14.40;99.90;;;;;;5057588;28;20043;-69
2022/05/30 11:21:00;;;;;;;3.20;0.98;;;14.80;99.90;;;;;;5022258;28;20522;-70
2022/05/30 11:23:26;;;;;;;4.22;2.05;;;;;;;;;;5049588;28;20568;-69
2022/05/30 11:26:20;;;;;;;2.35;0.95;;;14.80;99.90;;;;;;5028439;28;20037;-70
2022/05/30 11:29:04;;;;;;;7.88;1.45;;;14.80;99.90;;;;;;5056167;28;20043;-69
2022/05/30 11:31:56;;;;;;;3.58;1.33;;;14.70;99.90;;;;;;5039907;28;20037;-69
2022/05/30 11:34:25;;;;;;;4.25;1.08;;;14.60;99.90;;;;;;5027957;28;20528;-69
2022/05/30 11:37:21;;;;;;;3.00;1.00;;;14.40;99.90;;;;;;5046268;28;20033;-69
2022/05/30 11:40:15;;;;;;;5.50;0.82;;;14.40;99.90;;;;;;5034037;28;20040;-69
2022/05/30 11:42:56;;;;;;;;;;;14.40;99.90;;;;;;5048551;28;20033;-69
2022/05/30 11:45:32;;;;;;;7.55;1.38;;;14.40;99.90;;;;;;5043127;28;19923;-69
2022/05/30 11:48:07;;;;;;;5.63;1.25;;;14.40;99.90;;;;;;5044294;28;20562;-68
2022/05/30 11:50:35;;;;;;;3.53;0.88;;;14.10;99.90;;;;;;5044497;28;20048;-68
2022/05/30 11:53:35;;;;;;;4.85;0.90;;;14.20;99.90;;;;;;5046264;28;20051;-68
2022/05/30 11:56:22;;;;;;;1.88;0.70;;;14.50;99.90;;;;;;5045214;28;20510;-68
2022/05/30 11:59:16;;;;;;;2.33;0.57;;;14.60;99.90;;;;;;5049908;28;20564;-68
2022/05/30 12:01:45;;;;;;;4.43;0.85;;;14.70;99.90;;;;;;5042960;28;20036;-67
2022/05/30 12:04:28;;;;;;;1.30;0.60;;;14.80;99.90;;;;;;5046693;28;20425;-70
2022/05/30 12:07:00;;;;;;;1.52;0.43;;;14.60;99.90;;;;;;5025857;28;20040;-70
2022/05/30 12:09:35;;;;;;;2.38;1.10;;;15.20;99.90;;;;;;5051057;28;20093;-68
2022/05/30 12:12:23;;;;;;;3.67;0.60;;;15.10;99.90;;;;;;5025466;28;20037;-72
2022/05/30 12:15:26;;;;;;;3.03;0.80;;;15.10;99.90;;;;;;5044756;28;20414;-70
2022/05/30 12:24:09;;;;;;;5.85;1.10;;;15.10;99.90;;;;;;5035774;28;20116;-69
2022/05/30 12:26:52;;;;;;;2.10;1.17;;;15.30;99.90;;;;;;5040254;28;20041;-68
2022/05/30 12:29:39;;;;;;;;;;;17.20;99.90;;;;;;5017790;28;20041;-71
2022/05/30 12:32:21;;;;;;;12.18;1.60;;;15.40;99.90;;;;;;5041576;28;20396;-68
2022/05/30 12:35:26;;;;;;;2.50;1.00;;;15.30;99.90;;;;;;5063979;28;20048;-69
2022/05/30 12:37:53;;;;;;;4.53;0.80;;;15.40;99.90;;;;;;5027562;28;20041;-68
2022/05/30 12:40:27;;;;;;;2.58;0.90;;;15.10;99.90;;;;;;5042343;28;20406;-69
2022/05/30 12:43:07;;;;;;;3.65;0.70;;;15.00;99.90;;;;;;5055216;28;20048;-71
2022/05/30 12:46:07;;;;;;;4.05;1.27;;;14.90;99.90;;;;;;5051465;22;20095;-70
2022/05/30 12:48:38;;;;;;;3.75;1.00;;;14.80;99.90;;;;;;5051204;28;20114;-70
2022/05/30 12:51:29;;;;;;;1.35;0.82;;;14.80;99.90;;;;;;5021852;28;20035;-70
2022/05/30 12:53:54;;;;;;;2.45;0.98;;;14.60;99.90;;;;;;5004655;28;20072;-70
2022/05/30 12:56:38;;;;;;;1.83;0.75;;;14.60;99.90;;;;;;4986535;28;20057;-70
2022/05/30 12:59:03;;;;;;;3.58;0.80;;;14.50;99.90;;;;;;4996036;28;20089;-71
2022/05/30 13:01:44;;;;;;;4.88;0.77;;;14.50;99.90;;;;;;5004127;28;20055;-70
2022/05/30 13:04:22;;;;;;;6.80;1.35;;;14.40;99.90;;;;;;5017849;28;20057;-70
2022/05/30 13:06:58;;;;;;;6.57;1.20;;;14.40;99.90;;;;;;5024005;28;20180;-70
2022/05/30 13:09:35;;;;;;;4.10;1.48;;;14.40;99.90;;;;;;5000585;28;20048;-68
2022/05/30 13:12:19;;;;;;;6.70;1.60;;;14.20;99.90;;;;;;5025563;28;20115;-70
2022/05/30 13:15:00;;;;;;;2.47;1.27;;;14.20;99.90;;;;;;5012817;28;20041;-70
2022/05/30 13:17:57;;;;;;;5.00;0.90;;;14.30;99.90;;;;;;4998935;28;20042;-70
2022/05/30 13:20:45;;;;;;;6.28;1.30;;;14.20;99.90;;;;;;5021874;28;20042;-70
2022/05/30 13:23:12;;;;;;;6.68;1.58;;;14.60;99.90;;;;;;5018538;28;20052;-69
2022/05/30 13:25:47;;;;;;;2.78;0.77;;;15.00;99.90;;;;;;5008766;28;20053;-70
2022/05/30 13:28:20;;;;;;;6.63;0.75;;;14.90;99.90;;;;;;4981204;28;20045;-70
2022/05/30 13:30:47;;;;;;;2.30;1.15;;;14.70;99.90;;;;;;5000164;28;20440;-70
2022/05/30 13:33:20;;;;;;;3.45;0.88;;;14.90;99.90;;;;;;5018419;28;20048;-68
2022/05/30 13:35:46;;;;;;;3.15;0.90;;;14.40;99.90;;;;;;4989354;28;20041;-70
2022/05/30 13:38:13;;;;;;;5.78;1.08;;;14.60;99.90;;;;;;5004537;28;20455;-69
2022/05/30 13:40:40;;;;;;;5.07;1.67;;;14.60;99.90;;;;;;4998741;28;20048;-70
2022/05/30 13:43:08;;;;;;;3.13;0.85;;;14.70;99.90;;;;;;5000358;28;20037;-70
2022/05/30 13:45:40;;;;;;;4.07;0.82;;;14.80;99.90;;;;;;5011125;28;20046;-69
2022/05/30 13:48:17;;;;;;;2.45;0.80;;;14.70;99.90;;;;;;4992085;28;20077;-70